sensor_id;sensor_type;location;lat;lon;timestamp;temperature;humidity
71367;DHT22;60030;52.274;8.040;2023-05-10T00:01:01;16.10;99.90
71367;DHT22;60030;52.274;8.040;2023-05-10T00:03:28;16.10;99.90
71367;DHT22;60030;52.274;8.040;2023-05-10T00:05:58;16.00;99.90
71367;DHT22;60030;52.274;8.040;2023-05-10T00:08:25;16.00;99.90
71367;DHT22;60030;52.274;8.040;2023-05-10T00:10:53;16.10;99.90
71367;DHT22;60030;52.274;8.040;2023-05-10T00:13:20;16.10;99.90
71367;DHT22;60030;52.274;8.040;2023-05-10T00:15:48;16.10;99.90
71367;DHT22;60030;52.274;8.040;2023-05-10T00:18:16;16.10;99.90
71367;DHT22;60030;52.274;8.040;2023-05-10T00:20:44;16.10;99.90
71367;DHT22;60030;52.274;8.040;2023-05-10T00:23:13;16.10;99.90
71367;DHT22;60030;52.274;8.040;2023-05-10T00:25:40;16.00;99.90
71367;DHT22;60030;52.274;8.040;2023-05-10T00:28:08;16.00;99.90
71367;DHT22;60030;52.274;8.040;2023-05-10T00:30:37;16.10;99.90
71367;DHT22;60030;52.274;8.040;2023-05-10T00:33:06;16.00;99.90
71367;DHT22;60030;52.274;8.040;2023-05-10T00:35:34;15.90;99.90
71367;DHT22;60030;52.274;8.040;2023-05-10T00:38:02;15.90;99.90
71367;DHT22;60030;52.274;8.040;2023-05-10T00:40:32;16.00;99.90
71367;DHT22;60030;52.274;8.040;2023-05-10T00:43:04;16.00;99.90
71367;DHT22;60030;52.274;8.040;2023-05-10T00:45:32;16.00;99.90
71367;DHT22;60030;52.274;8.040;2023-05-10T00:48:01;15.90;99.90
71367;DHT22;60030;52.274;8.040;2023-05-10T00:50:30;15.90;99.90
71367;DHT22;60030;52.274;8.040;2023-05-10T00:52:58;15.90;99.90
71367;DHT22;60030;52.274;8.040;2023-05-10T00:55:26;15.90;99.90
71367;DHT22;60030;52.274;8.040;2023-05-10T00:57:54;16.00;99.90
71367;DHT22;60030;52.274;8.040;2023-05-10T01:00:22;15.90;99.90
71367;DHT22;60030;52.274;8.040;2023-05-10T01:02:50;15.90;99.90
71367;DHT22;60030;52.274;8.040;2023-05-10T01:05:17;15.80;99.90
71367;DHT22;60030;52.274;8.040;2023-05-10T01:07:44;15.90;99.90
71367;DHT22;60030;52.274;8.040;2023-05-10T01:10:12;15.90;99.90
71367;DHT22;60030;52.274;8.040;2023-05-10T01:12:41;15.90;99.90
71367;DHT22;60030;52.274;8.040;2023-05-10T01:15:11;15.90;99.90
71367;DHT22;60030;52.274;8.040;2023-05-10T01:17:40;15.90;99.90
71367;DHT22;60030;52.274;8.040;2023-05-10T01:20:10;15.90;99.90
71367;DHT22;60030;52.274;8.040;2023-05-10T01:25:56;15.90;99.90
71367;DHT22;60030;52.274;8.040;2023-05-10T01:31:34;15.90;99.90
71367;DHT22;60030;52.274;8.040;2023-05-10T01:34:09;15.90;99.90
71367;DHT22;60030;52.274;8.040;2023-05-10T01:36:43;15.90;99.90
71367;DHT22;60030;52.274;8.040;2023-05-10T01:39:17;15.80;99.90
71367;DHT22;60030;52.274;8.040;2023-05-10T01:41:49;15.90;99.90
71367;DHT22;60030;52.274;8.040;2023-05-10T01:44:27;15.70;99.90
71367;DHT22;60030;52.274;8.040;2023-05-10T01:47:05;15.60;99.90
71367;DHT22;60030;52.274;8.040;2023-05-10T01:49:39;15.60;99.90
71367;DHT22;60030;52.274;8.040;2023-05-10T01:52:10;15.60;99.90
71367;DHT22;60030;52.274;8.040;2023-05-10T01:54:41;15.50;99.90
71367;DHT22;60030;52.274;8.040;2023-05-10T01:57:11;15.40;99.90
71367;DHT22;60030;52.274;8.040;2023-05-10T01:59:43;15.50;99.90
71367;DHT22;60030;52.274;8.040;2023-05-10T02:02:14;15.60;99.90
71367;DHT22;60030;52.274;8.040;2023-05-10T02:04:43;15.50;99.90
71367;DHT22;60030;52.274;8.040;2023-05-10T02:07:12;15.60;99.90
71367;DHT22;60030;52.274;8.040;2023-05-10T02:09:44;15.60;99.90
71367;DHT22;60030;52.274;8.040;2023-05-10T02:12:14;15.60;99.90
71367;DHT22;60030;52.274;8.040;2023-05-10T02:14:42;15.60;99.90
71367;DHT22;60030;52.274;8.040;2023-05-10T02:17:11;15.60;99.90
71367;DHT22;60030;52.274;8.040;2023-05-10T02:19:43;15.60;99.90
71367;DHT22;60030;52.274;8.040;2023-05-10T02:22:12;15.60;99.90
71367;DHT22;60030;52.274;8.040;2023-05-10T02:24:40;15.60;99.90
71367;DHT22;60030;52.274;8.040;2023-05-10T02:27:09;15.60;99.90
71367;DHT22;60030;52.274;8.040;2023-05-10T02:29:37;15.50;99.90
71367;DHT22;60030;52.274;8.040;2023-05-10T02:32:06;15.50;99.90
71367;DHT22;60030;52.274;8.040;2023-05-10T02:34:33;15.50;99.90
71367;DHT22;60030;52.274;8.040;2023-05-10T02:37:03;15.50;99.90
71367;DHT22;60030;52.274;8.040;2023-05-10T02:39:32;15.40;99.90
71367;DHT22;60030;52.274;8.040;2023-05-10T02:42:01;15.40;99.90
71367;DHT22;60030;52.274;8.040;2023-05-10T02:44:30;15.40;99.90
71367;DHT22;60030;52.274;8.040;2023-05-10T02:46:58;15.40;99.90
71367;DHT22;60030;52.274;8.040;2023-05-10T02:49:26;15.30;99.90
71367;DHT22;60030;52.274;8.040;2023-05-10T02:52:04;15.30;99.90
71367;DHT22;60030;52.274;8.040;2023-05-10T02:54:37;15.30;99.90
71367;DHT22;60030;52.274;8.040;2023-05-10T02:57:07;15.30;99.90
71367;DHT22;60030;52.274;8.040;2023-05-10T02:59:38;15.20;99.90
71367;DHT22;60030;52.274;8.040;2023-05-10T03:02:06;15.10;99.90
71367;DHT22;60030;52.274;8.040;2023-05-10T03:04:34;15.00;99.90
71367;DHT22;60030;52.274;8.040;2023-05-10T03:07:02;14.80;99.90
71367;DHT22;60030;52.274;8.040;2023-05-10T03:09:30;14.80;99.90
71367;DHT22;60030;52.274;8.040;2023-05-10T03:12:03;14.70;99.90
71367;DHT22;60030;52.274;8.040;2023-05-10T03:14:42;14.70;99.90
71367;DHT22;60030;52.274;8.040;2023-05-10T03:17:25;14.70;99.90
71367;DHT22;60030;52.274;8.040;2023-05-10T03:19:55;14.60;99.90
71367;DHT22;60030;52.274;8.040;2023-05-10T03:22:29;14.70;99.90
71367;DHT22;60030;52.274;8.040;2023-05-10T03:24:58;14.60;99.90
71367;DHT22;60030;52.274;8.040;2023-05-10T03:27:31;14.60;99.90
71367;DHT22;60030;52.274;8.040;2023-05-10T03:30:01;14.50;99.90
71367;DHT22;60030;52.274;8.040;2023-05-10T03:32:32;14.60;99.90
71367;DHT22;60030;52.274;8.040;2023-05-10T03:35:01;14.50;99.90
71367;DHT22;60030;52.274;8.040;2023-05-10T03:37:34;14.50;99.90
71367;DHT22;60030;52.274;8.040;2023-05-10T03:40:02;14.60;99.90
71367;DHT22;60030;52.274;8.040;2023-05-10T03:42:32;14.50;99.90
71367;DHT22;60030;52.274;8.040;2023-05-10T03:45:00;14.50;99.90
71367;DHT22;60030;52.274;8.040;2023-05-10T03:47:28;14.50;99.90
71367;DHT22;60030;52.274;8.040;2023-05-10T03:49:57;14.50;99.90
71367;DHT22;60030;52.274;8.040;2023-05-10T03:52:25;14.50;99.90
71367;DHT22;60030;52.274;8.040;2023-05-10T03:54:53;14.50;99.90
71367;DHT22;60030;52.274;8.040;2023-05-10T03:57:23;14.50;99.90
71367;DHT22;60030;52.274;8.040;2023-05-10T03:59:51;14.50;99.90
71367;DHT22;60030;52.274;8.040;2023-05-10T04:02:18;14.50;99.90
71367;DHT22;60030;52.274;8.040;2023-05-10T04:04:47;14.40;99.90
71367;DHT22;60030;52.274;8.040;2023-05-10T04:07:14;14.50;99.90
71367;DHT22;60030;52.274;8.040;2023-05-10T04:09:41;14.40;99.90
71367;DHT22;60030;52.274;8.040;2023-05-10T04:12:10;14.50;99.90
71367;DHT22;60030;52.274;8.040;2023-05-10T04:14:38;14.40;99.90
71367;DHT22;60030;52.274;8.040;2023-05-10T04:17:05;14.50;99.90
71367;DHT22;60030;52.274;8.040;2023-05-10T04:19:33;14.50;99.90
71367;DHT22;60030;52.274;8.040;2023-05-10T04:22:02;14.50;99.90
71367;DHT22;60030;52.274;8.040;2023-05-10T04:24:29;14.40;99.90
71367;DHT22;60030;52.274;8.040;2023-05-10T04:26:57;14.40;99.90
71367;DHT22;60030;52.274;8.040;2023-05-10T04:29:26;14.50;99.90
71367;DHT22;60030;52.274;8.040;2023-05-10T04:31:54;14.40;99.90
71367;DHT22;60030;52.274;8.040;2023-05-10T04:34:22;14.50;99.90
71367;DHT22;60030;52.274;8.040;2023-05-10T04:36:49;14.50;99.90
71367;DHT22;60030;52.274;8.040;2023-05-10T04:39:17;14.50;99.90
71367;DHT22;60030;52.274;8.040;2023-05-10T04:41:44;14.40;99.90
71367;DHT22;60030;52.274;8.040;2023-05-10T04:44:12;14.40;99.90
71367;DHT22;60030;52.274;8.040;2023-05-10T04:46:40;14.30;99.90
71367;DHT22;60030;52.274;8.040;2023-05-10T04:49:08;14.40;99.90
71367;DHT22;60030;52.274;8.040;2023-05-10T04:51:35;14.50;99.90
71367;DHT22;60030;52.274;8.040;2023-05-10T04:54:02;14.50;99.90
71367;DHT22;60030;52.274;8.040;2023-05-10T04:56:30;14.50;99.90
71367;DHT22;60030;52.274;8.040;2023-05-10T04:58:57;14.50;99.90
71367;DHT22;60030;52.274;8.040;2023-05-10T05:01:25;14.40;99.90
71367;DHT22;60030;52.274;8.040;2023-05-10T05:03:53;14.40;99.90
71367;DHT22;60030;52.274;8.040;2023-05-10T05:06:21;14.50;99.90
71367;DHT22;60030;52.274;8.040;2023-05-10T05:08:48;14.50;99.90
71367;DHT22;60030;52.274;8.040;2023-05-10T05:11:16;14.50;99.90
71367;DHT22;60030;52.274;8.040;2023-05-10T05:13:44;14.60;99.90
71367;DHT22;60030;52.274;8.040;2023-05-10T05:16:11;14.60;99.90
71367;DHT22;60030;52.274;8.040;2023-05-10T05:18:39;14.60;99.90
71367;DHT22;60030;52.274;8.040;2023-05-10T05:21:15;14.60;99.90
71367;DHT22;60030;52.274;8.040;2023-05-10T05:23:43;14.50;99.90
71367;DHT22;60030;52.274;8.040;2023-05-10T05:26:10;14.60;99.90
71367;DHT22;60030;52.274;8.040;2023-05-10T05:28:38;14.60;99.90
71367;DHT22;60030;52.274;8.040;2023-05-10T05:31:06;14.70;99.90
71367;DHT22;60030;52.274;8.040;2023-05-10T05:33:35;14.70;99.90
71367;DHT22;60030;52.274;8.040;2023-05-10T05:36:05;14.70;99.90
71367;DHT22;60030;52.274;8.040;2023-05-10T05:38:34;14.70;99.90
71367;DHT22;60030;52.274;8.040;2023-05-10T05:41:01;14.70;99.90
71367;DHT22;60030;52.274;8.040;2023-05-10T05:43:29;14.60;99.90
71367;DHT22;60030;52.274;8.040;2023-05-10T05:45:58;14.50;99.90
71367;DHT22;60030;52.274;8.040;2023-05-10T05:48:25;14.60;99.90
71367;DHT22;60030;52.274;8.040;2023-05-10T05:50:54;14.70;99.90
71367;DHT22;60030;52.274;8.040;2023-05-10T05:53:22;14.80;99.90
71367;DHT22;60030;52.274;8.040;2023-05-10T05:55:55;14.60;99.90
71367;DHT22;60030;52.274;8.040;2023-05-10T05:58:23;14.70;99.90
71367;DHT22;60030;52.274;8.040;2023-05-10T06:00:51;14.80;99.90
71367;DHT22;60030;52.274;8.040;2023-05-10T06:03:19;14.60;99.90
71367;DHT22;60030;52.274;8.040;2023-05-10T06:05:46;14.60;99.90
71367;DHT22;60030;52.274;8.040;2023-05-10T06:08:14;14.70;99.90
71367;DHT22;60030;52.274;8.040;2023-05-10T06:10:41;14.80;99.90
71367;DHT22;60030;52.274;8.040;2023-05-10T06:13:10;14.90;99.90
71367;DHT22;60030;52.274;8.040;2023-05-10T06:18:43;14.70;99.90
71367;DHT22;60030;52.274;8.040;2023-05-10T06:21:11;14.80;99.90
71367;DHT22;60030;52.274;8.040;2023-05-10T06:23:38;14.70;99.90
71367;DHT22;60030;52.274;8.040;2023-05-10T06:26:05;14.70;99.90
71367;DHT22;60030;52.274;8.040;2023-05-10T06:28:34;14.60;99.90
71367;DHT22;60030;52.274;8.040;2023-05-10T06:31:04;14.70;99.90
71367;DHT22;60030;52.274;8.040;2023-05-10T06:33:31;14.80;99.90
71367;DHT22;60030;52.274;8.040;2023-05-10T06:35:58;14.80;99.90
71367;DHT22;60030;52.274;8.040;2023-05-10T06:38:26;15.00;99.90
71367;DHT22;60030;52.274;8.040;2023-05-10T06:40:54;15.00;99.90
71367;DHT22;60030;52.274;8.040;2023-05-10T06:43:21;15.20;99.90
71367;DHT22;60030;52.274;8.040;2023-05-10T06:45:51;15.30;99.90
71367;DHT22;60030;52.274;8.040;2023-05-10T06:48:19;15.30;99.90
71367;DHT22;60030;52.274;8.040;2023-05-10T06:50:47;15.30;99.90
71367;DHT22;60030;52.274;8.040;2023-05-10T06:53:15;15.40;99.90
71367;DHT22;60030;52.274;8.040;2023-05-10T06:55:43;15.40;99.90
71367;DHT22;60030;52.274;8.040;2023-05-10T06:58:14;15.30;99.90
71367;DHT22;60030;52.274;8.040;2023-05-10T07:00:43;15.30;99.90
71367;DHT22;60030;52.274;8.040;2023-05-10T07:03:12;15.30;99.90
71367;DHT22;60030;52.274;8.040;2023-05-10T07:05:40;15.40;99.90
71367;DHT22;60030;52.274;8.040;2023-05-10T07:08:12;15.70;99.90
71367;DHT22;60030;52.274;8.040;2023-05-10T07:10:40;16.00;99.90
71367;DHT22;60030;52.274;8.040;2023-05-10T07:13:07;16.20;99.90
71367;DHT22;60030;52.274;8.040;2023-05-10T07:15:35;16.30;99.90
71367;DHT22;60030;52.274;8.040;2023-05-10T07:18:03;16.20;99.90
71367;DHT22;60030;52.274;8.040;2023-05-10T07:20:33;16.20;99.90
71367;DHT22;60030;52.274;8.040;2023-05-10T07:23:01;16.00;99.90
71367;DHT22;60030;52.274;8.040;2023-05-10T07:25:28;15.80;99.90
71367;DHT22;60030;52.274;8.040;2023-05-10T07:27:56;15.70;99.90
71367;DHT22;60030;52.274;8.040;2023-05-10T07:30:23;15.70;99.90
71367;DHT22;60030;52.274;8.040;2023-05-10T07:32:51;15.80;99.90
71367;DHT22;60030;52.274;8.040;2023-05-10T07:35:18;15.90;99.90
71367;DHT22;60030;52.274;8.040;2023-05-10T07:37:47;15.80;99.90
71367;DHT22;60030;52.274;8.040;2023-05-10T07:40:15;15.80;99.90
71367;DHT22;60030;52.274;8.040;2023-05-10T07:42:43;15.90;99.90
71367;DHT22;60030;52.274;8.040;2023-05-10T07:45:10;15.80;99.90
71367;DHT22;60030;52.274;8.040;2023-05-10T07:47:38;15.80;99.90
71367;DHT22;60030;52.274;8.040;2023-05-10T07:50:07;15.90;99.90
71367;DHT22;60030;52.274;8.040;2023-05-10T07:52:35;16.00;99.90
71367;DHT22;60030;52.274;8.040;2023-05-10T07:55:07;16.00;99.90
71367;DHT22;60030;52.274;8.040;2023-05-10T07:57:39;16.20;99.90
71367;DHT22;60030;52.274;8.040;2023-05-10T08:00:12;16.20;99.90
71367;DHT22;60030;52.274;8.040;2023-05-10T08:02:40;16.30;99.90
71367;DHT22;60030;52.274;8.040;2023-05-10T08:05:09;16.20;99.90
71367;DHT22;60030;52.274;8.040;2023-05-10T08:07:38;16.50;99.90
71367;DHT22;60030;52.274;8.040;2023-05-10T08:10:09;16.80;99.90
71367;DHT22;60030;52.274;8.040;2023-05-10T08:12:38;16.90;99.90
71367;DHT22;60030;52.274;8.040;2023-05-10T08:15:06;16.80;99.90
71367;DHT22;60030;52.274;8.040;2023-05-10T08:17:34;16.70;99.90
71367;DHT22;60030;52.274;8.040;2023-05-10T08:20:02;17.00;99.90
71367;DHT22;60030;52.274;8.040;2023-05-10T08:22:30;17.20;99.90
71367;DHT22;60030;52.274;8.040;2023-05-10T08:24:58;17.40;99.90
71367;DHT22;60030;52.274;8.040;2023-05-10T08:27:27;17.60;99.90
71367;DHT22;60030;52.274;8.040;2023-05-10T08:29:54;17.80;99.90
71367;DHT22;60030;52.274;8.040;2023-05-10T08:32:22;17.70;99.90
71367;DHT22;60030;52.274;8.040;2023-05-10T08:34:49;17.80;99.90
71367;DHT22;60030;52.274;8.040;2023-05-10T08:37:17;17.80;99.90
71367;DHT22;60030;52.274;8.040;2023-05-10T08:39:44;17.90;99.90
71367;DHT22;60030;52.274;8.040;2023-05-10T08:42:19;17.90;99.90
71367;DHT22;60030;52.274;8.040;2023-05-10T08:44:49;17.90;99.90
71367;DHT22;60030;52.274;8.040;2023-05-10T08:47:18;18.10;99.90
71367;DHT22;60030;52.274;8.040;2023-05-10T08:49:47;17.80;99.90
71367;DHT22;60030;52.274;8.040;2023-05-10T08:52:17;17.80;99.90
71367;DHT22;60030;52.274;8.040;2023-05-10T08:54:45;18.00;99.90
71367;DHT22;60030;52.274;8.040;2023-05-10T08:57:13;18.00;99.90
71367;DHT22;60030;52.274;8.040;2023-05-10T08:59:41;17.90;99.90
71367;DHT22;60030;52.274;8.040;2023-05-10T09:02:10;17.70;99.90
71367;DHT22;60030;52.274;8.040;2023-05-10T09:04:38;17.80;99.90
71367;DHT22;60030;52.274;8.040;2023-05-10T09:07:06;18.00;99.90
71367;DHT22;60030;52.274;8.040;2023-05-10T09:09:34;18.00;99.90
71367;DHT22;60030;52.274;8.040;2023-05-10T09:12:02;17.80;99.90
71367;DHT22;60030;52.274;8.040;2023-05-10T09:14:30;17.80;99.90
71367;DHT22;60030;52.274;8.040;2023-05-10T09:16:58;17.50;99.90
71367;DHT22;60030;52.274;8.040;2023-05-10T09:19:29;17.40;99.90
71367;DHT22;60030;52.274;8.040;2023-05-10T09:21:57;17.50;99.90
71367;DHT22;60030;52.274;8.040;2023-05-10T09:24:28;17.60;99.90
71367;DHT22;60030;52.274;8.040;2023-05-10T09:26:57;17.60;99.90
71367;DHT22;60030;52.274;8.040;2023-05-10T09:29:24;17.80;99.90
71367;DHT22;60030;52.274;8.040;2023-05-10T09:31:53;18.00;99.90
71367;DHT22;60030;52.274;8.040;2023-05-10T09:34:30;17.60;99.90
71367;DHT22;60030;52.274;8.040;2023-05-10T09:37:01;17.70;99.90
71367;DHT22;60030;52.274;8.040;2023-05-10T09:39:31;17.70;99.90
71367;DHT22;60030;52.274;8.040;2023-05-10T09:41:59;17.80;99.90
71367;DHT22;60030;52.274;8.040;2023-05-10T09:44:29;17.90;99.90
71367;DHT22;60030;52.274;8.040;2023-05-10T09:46:58;18.10;99.90
71367;DHT22;60030;52.274;8.040;2023-05-10T09:49:26;18.30;99.90
71367;DHT22;60030;52.274;8.040;2023-05-10T09:52:05;18.40;99.90
71367;DHT22;60030;52.274;8.040;2023-05-10T09:54:32;18.60;99.90
71367;DHT22;60030;52.274;8.040;2023-05-10T09:57:00;18.60;99.90
71367;DHT22;60030;52.274;8.040;2023-05-10T09:59:28;18.70;99.90
71367;DHT22;60030;52.274;8.040;2023-05-10T10:01:56;19.00;99.90
71367;DHT22;60030;52.274;8.040;2023-05-10T10:04:24;18.90;99.90
71367;DHT22;60030;52.274;8.040;2023-05-10T10:07:03;18.80;99.90
71367;DHT22;60030;52.274;8.040;2023-05-10T10:09:32;18.80;99.90
71367;DHT22;60030;52.274;8.040;2023-05-10T10:12:00;18.80;99.90
71367;DHT22;60030;52.274;8.040;2023-05-10T10:14:29;18.70;99.90
71367;DHT22;60030;52.274;8.040;2023-05-10T10:16:57;18.60;99.90
71367;DHT22;60030;52.274;8.040;2023-05-10T10:19:27;18.40;99.90
71367;DHT22;60030;52.274;8.040;2023-05-10T10:21:55;18.60;99.90
71367;DHT22;60030;52.274;8.040;2023-05-10T10:24:23;18.80;99.90
71367;DHT22;60030;52.274;8.040;2023-05-10T10:26:53;18.90;99.90
71367;DHT22;60030;52.274;8.040;2023-05-10T10:29:29;19.20;99.90
71367;DHT22;60030;52.274;8.040;2023-05-10T10:32:06;19.20;99.90
71367;DHT22;60030;52.274;8.040;2023-05-10T10:34:36;19.20;99.90
71367;DHT22;60030;52.274;8.040;2023-05-10T10:37:06;19.10;99.90
71367;DHT22;60030;52.274;8.040;2023-05-10T10:39:33;18.80;99.90
71367;DHT22;60030;52.274;8.040;2023-05-10T10:42:04;18.90;99.90
71367;DHT22;60030;52.274;8.040;2023-05-10T10:44:37;18.80;99.90
71367;DHT22;60030;52.274;8.040;2023-05-10T10:47:07;18.70;99.90
71367;DHT22;60030;52.274;8.040;2023-05-10T10:49:48;18.80;99.90
71367;DHT22;60030;52.274;8.040;2023-05-10T10:52:25;19.20;99.90
71367;DHT22;60030;52.274;8.040;2023-05-10T10:54:59;19.50;99.90
71367;DHT22;60030;52.274;8.040;2023-05-10T10:57:31;19.50;99.90
71367;DHT22;60030;52.274;8.040;2023-05-10T11:00:21;19.40;99.90
71367;DHT22;60030;52.274;8.040;2023-05-10T11:02:50;19.30;99.90
71367;DHT22;60030;52.274;8.040;2023-05-10T11:05:35;19.60;99.90
71367;DHT22;60030;52.274;8.040;2023-05-10T11:08:13;19.60;99.90
71367;DHT22;60030;52.274;8.040;2023-05-10T11:10:48;19.70;99.90
71367;DHT22;60030;52.274;8.040;2023-05-10T11:13:27;19.90;99.90
71367;DHT22;60030;52.274;8.040;2023-05-10T11:15:56;20.00;99.90
71367;DHT22;60030;52.274;8.040;2023-05-10T11:18:26;20.10;99.90
71367;DHT22;60030;52.274;8.040;2023-05-10T11:20:57;19.90;99.90
71367;DHT22;60030;52.274;8.040;2023-05-10T11:23:31;20.30;99.90
71367;DHT22;60030;52.274;8.040;2023-05-10T11:25:59;20.50;99.90
71367;DHT22;60030;52.274;8.040;2023-05-10T11:28:28;20.10;99.90
71367;DHT22;60030;52.274;8.040;2023-05-10T11:30:56;19.70;99.90
71367;DHT22;60030;52.274;8.040;2023-05-10T11:33:24;19.80;99.90
71367;DHT22;60030;52.274;8.040;2023-05-10T11:35:51;19.80;99.90
71367;DHT22;60030;52.274;8.040;2023-05-10T11:38:18;20.10;99.90
71367;DHT22;60030;52.274;8.040;2023-05-10T11:40:46;20.30;99.90
71367;DHT22;60030;52.274;8.040;2023-05-10T11:43:14;21.10;99.90
71367;DHT22;60030;52.274;8.040;2023-05-10T11:45:43;21.40;99.90
71367;DHT22;60030;52.274;8.040;2023-05-10T11:48:12;21.10;99.90
71367;DHT22;60030;52.274;8.040;2023-05-10T11:50:39;21.10;99.90
71367;DHT22;60030;52.274;8.040;2023-05-10T11:53:08;21.00;99.90
71367;DHT22;60030;52.274;8.040;2023-05-10T11:55:36;20.90;99.90
71367;DHT22;60030;52.274;8.040;2023-05-10T11:58:03;21.10;99.90
71367;DHT22;60030;52.274;8.040;2023-05-10T12:00:31;21.20;99.90
71367;DHT22;60030;52.274;8.040;2023-05-10T12:03:01;21.10;99.90
71367;DHT22;60030;52.274;8.040;2023-05-10T12:05:32;20.80;99.90
71367;DHT22;60030;52.274;8.040;2023-05-10T12:08:13;20.80;99.90
71367;DHT22;60030;52.274;8.040;2023-05-10T12:10:42;21.20;99.90
71367;DHT22;60030;52.274;8.040;2023-05-10T12:13:13;21.50;99.90
71367;DHT22;60030;52.274;8.040;2023-05-10T12:15:41;21.80;99.90
71367;DHT22;60030;52.274;8.040;2023-05-10T12:18:11;22.00;99.90
71367;DHT22;60030;52.274;8.040;2023-05-10T12:20:39;21.50;99.90
71367;DHT22;60030;52.274;8.040;2023-05-10T12:23:09;22.00;99.90
71367;DHT22;60030;52.274;8.040;2023-05-10T12:25:40;22.30;99.90
71367;DHT22;60030;52.274;8.040;2023-05-10T12:28:08;22.30;99.90
71367;DHT22;60030;52.274;8.040;2023-05-10T12:30:38;21.90;99.90
71367;DHT22;60030;52.274;8.040;2023-05-10T12:33:13;22.30;99.90
71367;DHT22;60030;52.274;8.040;2023-05-10T12:35:46;22.20;99.90
71367;DHT22;60030;52.274;8.040;2023-05-10T12:38:25;22.70;99.90
71367;DHT22;60030;52.274;8.040;2023-05-10T12:40:55;23.10;99.90
71367;DHT22;60030;52.274;8.040;2023-05-10T12:43:23;23.30;99.90
71367;DHT22;60030;52.274;8.040;2023-05-10T12:45:50;23.40;99.90
71367;DHT22;60030;52.274;8.040;2023-05-10T12:48:19;22.90;99.90
71367;DHT22;60030;52.274;8.040;2023-05-10T12:50:46;22.60;99.90
71367;DHT22;60030;52.274;8.040;2023-05-10T12:53:14;22.70;99.90
71367;DHT22;60030;52.274;8.040;2023-05-10T12:55:44;22.70;99.90
71367;DHT22;60030;52.274;8.040;2023-05-10T12:58:11;21.90;99.90
71367;DHT22;60030;52.274;8.040;2023-05-10T13:00:39;22.50;99.90
71367;DHT22;60030;52.274;8.040;2023-05-10T13:03:06;24.10;99.90
71367;DHT22;60030;52.274;8.040;2023-05-10T13:05:35;25.30;99.50
71367;DHT22;60030;52.274;8.040;2023-05-10T13:08:03;26.30;95.00
71367;DHT22;60030;52.274;8.040;2023-05-10T13:10:31;26.90;92.20
71367;DHT22;60030;52.274;8.040;2023-05-10T13:12:59;27.20;90.30
71367;DHT22;60030;52.274;8.040;2023-05-10T13:15:27;25.70;92.70
71367;DHT22;60030;52.274;8.040;2023-05-10T13:17:58;26.00;91.40
71367;DHT22;60030;52.274;8.040;2023-05-10T13:20:26;24.80;94.00
71367;DHT22;60030;52.274;8.040;2023-05-10T13:22:55;23.90;96.50
71367;DHT22;60030;52.274;8.040;2023-05-10T13:25:31;23.80;98.40
71367;DHT22;60030;52.274;8.040;2023-05-10T13:28:05;23.50;98.90
71367;DHT22;60030;52.274;8.040;2023-05-10T13:30:38;22.10;99.90
71367;DHT22;60030;52.274;8.040;2023-05-10T13:33:05;21.50;99.90
71367;DHT22;60030;52.274;8.040;2023-05-10T13:35:33;21.20;99.90
71367;DHT22;60030;52.274;8.040;2023-05-10T13:38:01;21.10;99.90
71367;DHT22;60030;52.274;8.040;2023-05-10T13:40:29;20.80;99.90
71367;DHT22;60030;52.274;8.040;2023-05-10T13:42:56;20.90;99.90
71367;DHT22;60030;52.274;8.040;2023-05-10T13:45:24;20.90;99.90
71367;DHT22;60030;52.274;8.040;2023-05-10T13:47:52;21.00;99.90
71367;DHT22;60030;52.274;8.040;2023-05-10T13:50:20;21.40;99.90
71367;DHT22;60030;52.274;8.040;2023-05-10T13:52:47;22.70;99.90
71367;DHT22;60030;52.274;8.040;2023-05-10T13:55:16;23.30;99.90
71367;DHT22;60030;52.274;8.040;2023-05-10T13:57:43;24.40;99.90
71367;DHT22;60030;52.274;8.040;2023-05-10T14:00:12;24.80;99.90
71367;DHT22;60030;52.274;8.040;2023-05-10T14:02:39;24.50;99.90
71367;DHT22;60030;52.274;8.040;2023-05-10T14:05:07;23.60;99.90
71367;DHT22;60030;52.274;8.040;2023-05-10T14:07:36;23.40;99.90
71367;DHT22;60030;52.274;8.040;2023-05-10T14:10:04;24.00;99.90
71367;DHT22;60030;52.274;8.040;2023-05-10T14:12:33;24.50;99.40
71367;DHT22;60030;52.274;8.040;2023-05-10T14:15:01;24.00;99.90
71367;DHT22;60030;52.274;8.040;2023-05-10T14:17:31;23.30;99.90
71367;DHT22;60030;52.274;8.040;2023-05-10T14:19:59;22.70;99.90
71367;DHT22;60030;52.274;8.040;2023-05-10T14:22:26;22.30;99.90
71367;DHT22;60030;52.274;8.040;2023-05-10T14:24:54;21.70;99.90
71367;DHT22;60030;52.274;8.040;2023-05-10T14:27:21;21.30;99.90
71367;DHT22;60030;52.274;8.040;2023-05-10T14:29:50;21.30;99.90
71367;DHT22;60030;52.274;8.040;2023-05-10T14:32:17;21.00;99.90
71367;DHT22;60030;52.274;8.040;2023-05-10T14:34:45;20.70;99.90
71367;DHT22;60030;52.274;8.040;2023-05-10T14:37:13;20.60;99.90
71367;DHT22;60030;52.274;8.040;2023-05-10T14:39:41;20.70;99.90
71367;DHT22;60030;52.274;8.040;2023-05-10T14:42:08;20.50;99.90
71367;DHT22;60030;52.274;8.040;2023-05-10T14:44:36;20.40;99.90
71367;DHT22;60030;52.274;8.040;2023-05-10T14:47:05;20.40;99.90
71367;DHT22;60030;52.274;8.040;2023-05-10T14:49:32;20.40;99.90
71367;DHT22;60030;52.274;8.040;2023-05-10T14:52:00;20.20;99.90
71367;DHT22;60030;52.274;8.040;2023-05-10T14:54:27;20.00;99.90
71367;DHT22;60030;52.274;8.040;2023-05-10T14:56:54;19.80;99.90
71367;DHT22;60030;52.274;8.040;2023-05-10T14:59:22;19.90;99.90
71367;DHT22;60030;52.274;8.040;2023-05-10T15:01:49;19.90;99.90
71367;DHT22;60030;52.274;8.040;2023-05-10T15:04:19;20.20;99.90
71367;DHT22;60030;52.274;8.040;2023-05-10T15:06:47;21.30;99.90
71367;DHT22;60030;52.274;8.040;2023-05-10T15:09:15;21.80;99.90
71367;DHT22;60030;52.274;8.040;2023-05-10T15:11:43;22.50;99.90
71367;DHT22;60030;52.274;8.040;2023-05-10T15:14:10;22.80;99.90
71367;DHT22;60030;52.274;8.040;2023-05-10T15:16:38;22.80;99.90
71367;DHT22;60030;52.274;8.040;2023-05-10T15:19:05;23.00;99.90
71367;DHT22;60030;52.274;8.040;2023-05-10T15:21:34;23.60;99.90
71367;DHT22;60030;52.274;8.040;2023-05-10T15:24:04;23.60;99.90
71367;DHT22;60030;52.274;8.040;2023-05-10T15:26:32;23.30;99.90
71367;DHT22;60030;52.274;8.040;2023-05-10T15:28:59;23.10;99.90
71367;DHT22;60030;52.274;8.040;2023-05-10T15:31:26;22.80;99.90
71367;DHT22;60030;52.274;8.040;2023-05-10T15:33:57;22.30;99.90
71367;DHT22;60030;52.274;8.040;2023-05-10T15:36:24;21.90;99.90
71367;DHT22;60030;52.274;8.040;2023-05-10T15:38:54;21.60;99.90
71367;DHT22;60030;52.274;8.040;2023-05-10T15:41:21;21.50;99.90
71367;DHT22;60030;52.274;8.040;2023-05-10T15:43:49;21.60;99.90
71367;DHT22;60030;52.274;8.040;2023-05-10T15:46:16;21.80;99.90
71367;DHT22;60030;52.274;8.040;2023-05-10T15:48:44;22.50;99.90
71367;DHT22;60030;52.274;8.040;2023-05-10T15:51:11;22.90;99.90